createdAt,value
2023-06-14T00:02:37.414Z,99.90
2023-06-14T00:07:44.911Z,99.90
2023-06-14T00:12:46.772Z,99.90
2023-06-14T00:17:50.921Z,99.90
2023-06-14T00:22:53.495Z,99.90
2023-06-14T00:27:56.163Z,99.90
2023-06-14T00:32:59.289Z,99.90
2023-06-14T00:38:03.471Z,99.90
2023-06-14T00:43:05.516Z,99.90
2023-06-14T00:48:09.610Z,99.90
2023-06-14T00:53:13.690Z,99.90
2023-06-14T00:58:17.485Z,99.90
2023-06-14T01:03:23.314Z,99.90
2023-06-14T01:08:43.689Z,99.90
2023-06-14T01:13:49.776Z,99.90
2023-06-14T03:45:39.457Z,99.90
2023-06-14T03:50:42.378Z,99.90
2023-06-14T04:00:52.988Z,99.90
2023-06-14T04:06:00.984Z,99.90
2023-06-14T04:11:03.320Z,99.90
2023-06-14T04:16:09.718Z,99.90
2023-06-14T04:21:12.314Z,99.90
2023-06-14T04:26:17.623Z,99.90
2023-06-14T04:31:22.632Z,99.90
2023-06-14T04:36:24.893Z,99.90
2023-06-14T04:41:31.742Z,99.90
2023-06-14T04:46:45.180Z,99.90
2023-06-14T04:51:52.078Z,99.90
2023-06-14T04:56:56.409Z,99.90
2023-06-14T05:02:01.124Z,99.90
2023-06-14T05:07:03.525Z,99.90
2023-06-14T05:12:06.097Z,99.90
2023-06-14T05:17:08.240Z,99.90
2023-06-14T05:22:10.090Z,99.90
2023-06-14T05:27:12.008Z,99.90
2023-06-14T05:32:13.977Z,99.90
2023-06-14T05:37:16.072Z,99.90
2023-06-14T05:42:17.942Z,99.90
2023-06-14T05:47:19.888Z,99.90
2023-06-14T05:52:21.774Z,99.90
2023-06-14T05:57:23.599Z,99.90
2023-06-14T06:02:25.647Z,97.40
2023-06-14T06:07:27.648Z,94.10
2023-06-14T06:12:29.462Z,91.60
2023-06-14T06:17:42.254Z,91.60
2023-06-14T06:22:48.416Z,91.50
2023-06-14T06:27:50.203Z,91.40
2023-06-14T06:32:52.726Z,90.50
2023-06-14T06:37:54.670Z,88.70
2023-06-14T06:42:56.725Z,91.30
2023-06-14T06:48:02.739Z,92.10
2023-06-14T06:53:04.688Z,92.10
2023-06-14T06:58:06.662Z,92.50
2023-06-14T07:03:08.569Z,93.10
2023-06-14T07:08:10.409Z,93.70
2023-06-14T07:13:12.835Z,93.10
2023-06-14T07:18:16.567Z,94.00
2023-06-14T07:23:18.948Z,94.90
2023-06-14T07:28:21.180Z,95.00
2023-06-14T07:33:23.123Z,94.60
2023-06-14T07:38:25.047Z,94.60
2023-06-14T07:43:27.201Z,95.10
2023-06-14T07:48:29.720Z,94.70
2023-06-14T07:53:33.985Z,92.90
2023-06-14T07:58:35.837Z,94.40
2023-06-14T08:03:38.051Z,97.00
2023-06-14T08:08:39.916Z,96.90
2023-06-14T08:13:41.793Z,96.50
2023-06-14T08:18:44.920Z,95.40
2023-06-14T08:23:46.876Z,96.30
2023-06-14T08:28:48.772Z,97.90
2023-06-14T08:33:50.763Z,98.50
2023-06-14T08:38:52.704Z,98.10
2023-06-14T08:43:54.828Z,99.70
2023-06-14T08:49:00.115Z,99.90
2023-06-14T08:54:02.979Z,99.90
2023-06-14T08:59:05.421Z,99.90
2023-06-14T09:04:07.334Z,99.90
2023-06-14T09:09:09.130Z,99.90
2023-06-14T09:14:11.455Z,99.90
2023-06-14T09:19:26.383Z,99.90
2023-06-14T09:24:28.361Z,99.90
2023-06-14T09:29:31.800Z,99.90
2023-06-14T09:34:35.960Z,99.90
2023-06-14T09:39:50.800Z,99.90
2023-06-14T09:44:55.030Z,99.90
2023-06-14T09:49:56.949Z,99.90
2023-06-14T09:55:00.353Z,99.90
2023-06-14T10:00:06.416Z,99.90
2023-06-14T10:05:18.724Z,99.90
2023-06-14T10:10:21.013Z,99.10
2023-06-14T10:15:47.905Z,99.90
2023-06-14T10:21:09.366Z,99.90
2023-06-14T10:26:22.951Z,98.20
2023-06-14T10:31:40.637Z,99.90
2023-06-14T10:36:44.651Z,99.00
2023-06-14T10:41:57.360Z,98.80
2023-06-14T10:47:02.468Z,97.90
2023-06-14T10:52:07.709Z,99.90
2023-06-14T10:57:09.648Z,99.90
2023-06-14T11:02:23.587Z,99.10
2023-06-14T11:07:59.499Z,98.40
2023-06-14T11:13:01.443Z,97.70
2023-06-14T11:18:05.661Z,98.30
2023-06-14T11:23:07.912Z,97.10
2023-06-14T11:28:09.833Z,96.50
2023-06-14T11:33:14.431Z,94.50
2023-06-14T11:38:16.416Z,95.10
2023-06-14T11:43:18.667Z,93.70
2023-06-14T11:48:20.850Z,92.10
2023-06-14T11:53:22.750Z,93.20
2023-06-14T11:58:24.732Z,92.20
2023-06-14T12:03:29.076Z,88.40
2023-06-14T12:08:39.758Z,89.30
2023-06-14T12:13:42.598Z,90.50
2023-06-14T12:18:44.877Z,92.00
2023-06-14T12:23:52.113Z,91.80
2023-06-14T12:28:54.148Z,88.10
2023-06-14T12:33:56.116Z,90.20
2023-06-14T12:38:58.023Z,90.60
2023-06-14T12:44:00.835Z,90.80
2023-06-14T12:49:02.742Z,91.50
2023-06-14T12:54:04.888Z,92.30
2023-06-14T12:59:07.309Z,92.10
2023-06-14T13:04:09.726Z,92.60
2023-06-14T13:09:11.801Z,93.50
2023-06-14T13:14:25.215Z,93.20
2023-06-14T13:19:27.968Z,91.90
2023-06-14T13:24:30.942Z,92.80
2023-06-14T13:29:35.289Z,93.50
2023-06-14T13:34:37.239Z,93.80
2023-06-14T13:39:39.100Z,92.70
2023-06-14T13:44:41.041Z,92.50
2023-06-14T13:49:43.555Z,93.00
2023-06-14T13:54:47.268Z,92.70
2023-06-14T13:59:50.814Z,93.10
2023-06-14T14:04:54.929Z,93.00
2023-06-14T14:09:58.644Z,93.00
2023-06-14T14:15:00.810Z,93.00
2023-06-14T14:20:02.800Z,92.90
2023-06-14T14:25:05.060Z,92.60
2023-06-14T14:30:07.530Z,92.30
2023-06-14T14:35:09.779Z,92.10
2023-06-14T14:40:12.451Z,92.00
2023-06-14T14:45:14.346Z,92.10
2023-06-14T14:50:17.731Z,94.20
2023-06-14T14:55:19.932Z,95.20
2023-06-14T15:00:22.058Z,96.10
2023-06-14T15:05:23.971Z,96.20
2023-06-14T15:10:26.041Z,96.90
2023-06-14T15:15:27.907Z,96.80
2023-06-14T15:20:30.236Z,97.40
2023-06-14T15:25:33.974Z,96.80
2023-06-14T15:30:36.012Z,96.90
2023-06-14T15:35:40.537Z,96.40
2023-06-14T15:40:43.431Z,96.00
2023-06-14T15:45:46.199Z,96.60
2023-06-14T15:50:48.081Z,98.10
2023-06-14T15:55:49.987Z,97.60
2023-06-14T16:00:51.866Z,97.40
2023-06-14T16:05:53.740Z,97.40
2023-06-14T16:10:55.615Z,97.50
2023-06-14T16:15:57.564Z,97.40
2023-06-14T16:20:59.413Z,97.60
2023-06-14T16:26:01.263Z,97.80
2023-06-14T16:31:03.116Z,97.70
2023-06-14T16:36:05.184Z,96.50
2023-06-14T16:41:07.071Z,97.30
2023-06-14T16:46:09.365Z,97.90
2023-06-14T16:51:11.298Z,96.60
2023-06-14T16:56:13.238Z,96.90
2023-06-14T17:01:15.238Z,96.50
2023-06-14T17:06:17.616Z,96.90
2023-06-14T17:11:19.674Z,97.30
2023-06-14T17:16:21.977Z,95.90
2023-06-14T17:21:23.986Z,96.60
2023-06-14T17:26:26.925Z,96.10
2023-06-14T17:31:28.728Z,97.00
2023-06-14T17:36:30.780Z,97.50
2023-06-14T17:41:33.734Z,97.10
2023-06-14T17:46:36.135Z,97.40
2023-06-14T17:51:38.186Z,97.40
2023-06-14T17:56:40.060Z,97.80
2023-06-14T18:01:41.993Z,98.40
2023-06-14T18:06:43.887Z,98.90
2023-06-14T18:11:45.790Z,99.90
2023-06-14T18:16:47.645Z,99.90
2023-06-14T18:21:49.523Z,99.90
2023-06-14T18:26:51.594Z,99.90
2023-06-14T18:31:53.504Z,99.90
2023-06-14T18:36:57.102Z,99.90
2023-06-14T18:42:00.076Z,99.90
2023-06-14T18:47:02.057Z,99.90
2023-06-14T18:52:04.069Z,99.90
2023-06-14T18:57:07.435Z,99.90
2023-06-14T19:02:09.235Z,99.90
2023-06-14T19:07:11.110Z,99.90
2023-06-14T19:12:13.024Z,99.90
2023-06-14T19:17:16.615Z,99.90
2023-06-14T19:22:18.855Z,99.90
2023-06-14T19:27:20.722Z,99.90
2023-06-14T19:32:22.594Z,99.90
2023-06-14T19:37:24.567Z,99.90
2023-06-14T19:42:26.405Z,99.90
2023-06-14T19:47:28.373Z,99.90
2023-06-14T19:52:30.247Z,99.90
2023-06-14T19:57:32.179Z,99.90
2023-06-14T20:02:34.047Z,99.90
2023-06-14T20:07:37.244Z,99.90
2023-06-14T20:12:42.373Z,99.90
2023-06-14T20:17:44.324Z,99.90
2023-06-14T20:22:46.197Z,99.90
2023-06-14T20:27:49.082Z,99.90
2023-06-14T20:32:51.002Z,99.90
2023-06-14T20:37:52.987Z,99.90
2023-06-14T20:42:58.085Z,99.90
2023-06-14T20:48:00.451Z,99.90
2023-06-14T20:53:02.491Z,99.90
2023-06-14T20:58:04.399Z,99.90
2023-06-14T21:03:07.438Z,99.90
2023-06-14T21:08:09.352Z,99.90
2023-06-14T21:13:11.268Z,99.90
2023-06-14T21:18:13.958Z,99.90
2023-06-14T21:23:15.991Z,99.90
2023-06-14T21:28:17.854Z,99.90
2023-06-14T21:33:19.854Z,99.90
2023-06-14T21:38:22.142Z,99.90
2023-06-14T21:43:26.718Z,99.90
2023-06-14T21:48:28.660Z,99.90
2023-06-14T21:53:32.983Z,99.90
2023-06-14T21:58:35.036Z,99.90
2023-06-14T22:03:37.087Z,99.90
2023-06-14T22:08:42.358Z,99.90
2023-06-14T22:13:44.829Z,99.90
2023-06-14T22:18:47.055Z,99.90
2023-06-14T22:23:49.614Z,99.90
2023-06-14T22:28:51.542Z,99.90
2023-06-14T22:33:54.331Z,99.90
2023-06-14T22:38:56.695Z,99.90
2023-06-14T22:43:59.592Z,99.90
2023-06-14T22:49:03.023Z,99.90
2023-06-14T22:54:05.200Z,99.90
2023-06-14T22:59:07.100Z,99.90
2023-06-14T23:04:09.048Z,99.90
2023-06-14T23:09:11.633Z,99.90
2023-06-14T23:14:14.530Z,99.90
2023-06-14T23:19:18.454Z,99.90
2023-06-14T23:24:20.927Z,99.90
2023-06-14T23:29:24.422Z,99.90
2023-06-14T23:34:27.101Z,99.90
2023-06-14T23:39:29.380Z,99.90
2023-06-14T23:44:31.269Z,99.90
2023-06-14T23:49:33.095Z,99.90
2023-06-14T23:54:35.191Z,99.90
2023-06-14T23:59:37.502Z,99.90
